Terminal Aerodrome Forecast
Issued by NWS Los Angeles, CA

Home | Current Version | Previous Version | Text Only | Print | Product List | Glossary On
Versions: 1 2 3 4 5 6 7 8 9 10 11 12 13 14 15 16 17 18
000
FTUS46 KLOX 290500
TAFSMX
TAF
KSMX 290525Z 2906/3006 VRB03KT 6SM BR BKN007
     FM291200 00000KT 2SM BR OVC003
     FM291600 VRB03KT 5SM BR BKN007
     FM291700 30008KT P6SM SCT250
     FM292000 30015G20KT P6SM SKC
     FM300400 31008KT P6SM SKC=

USA.gov is the U.S. government's official web portal to all federal, state and local government web resources and services.